x

Edisto - 41 Nm Southeast Of Charleston, Sc (41004) Wave Buoy

10:50pm - Sat 25th Oct 2014 All times are EDT. -4 hours from GMT.

  • Sig Wave height 2.0ft
  • Swell Direction
  • Peak Period 10s
  • Average Period 6s
  • Wind
    9mph, 11mph gusts
  • Sea Temp 77°f
  • Air Temp 71°f
  • Sea Pressure 1014.5mb
  • Edisto - 41 Nm Southeast Of Charleston, Sc
  • Edisto - 41 Nm Southeast Of Charleston, Sc

More Historic Weather Station data

Upgrade to MSW Pro to gain access to the past 30 days of data for over 8000 Wavebouys and Weather Stations around the globe.

Join Pro

Comparision Forecast

View Surf forecast
   
Sat 10/25 10:50pm 2ft 10s 6s 9 11 mph 1014.5mb 77f 71f
9:50pm 2ft 10s 6s 9 11 mph 1014.7mb 77f 71f
8:50pm 2ft 10s 7s 11 13 mph 1014.6mb 77f 71f
7:50pm 2ft 10s 7s 7 9 mph 1014.3mb 77f 70f
6:50pm 2ft 10s 6s 4 7 mph 1014mb 77f 69f
5:50pm 2.5ft 10s 6s 2 4 mph 1013.8mb 77f 70f
4:50pm 2.5ft 10s 7s 4 7 mph 1014mb 77f 69f
3:50pm 2.5ft 10s 5s 4 9 mph 1014.1mb 78f 69f
2:50pm 2.5ft 10s 5s 7 9 mph 1014.5mb 78f 68f
1:50pm 2.5ft 10s 5s 11 16 mph 1015mb 78f 68f
12:50pm 3ft 9s 5s 9 11 mph 1015.3mb 78f 68f
11:50am 2.5ft 10s 5s 9 13 mph 1015.6mb 78f 68f
10:50am 2.5ft 10s 6s 11 13 mph 1015.7mb 78f 68f
9:50am 2.5ft 10s 8s 11 16 mph 1015.6mb 78f 68f
8:50am 2.5ft 10s 8s 9 18 mph 1015.4mb 78f 69f
7:50am 2.5ft 10s 7s 7 9 mph 1015.1mb 78f 69f
6:50am 2.5ft 11s 7s 7 11 mph 1014.9mb 78f 69f
5:50am 3ft 10s 7s 7 11 mph 1014.7mb 78f 69f
4:50am 2.5ft 10s 7s 7 11 mph 1014.5mb 78f 69f
3:50am 3ft 10s 7s 7 11 mph 1014.4mb 78f 69f
2:50am 3ft 10s 8s 7 9 mph 1014.7mb 78f 69f
1:50am 3ft 10s 8s 7 9 mph 1015.4mb 78f 69f
12:50am 2.5ft 10s 8s 4 7 mph 1015.6mb 78f 69f
Fri 10/24 11:50pm 2.5ft 10s 7s 7 9 mph 1015.4mb 78f 69f
10:50pm 2.5ft 10s 7s 7 11 mph 1015.5mb 78f 69f
9:50pm 2.5ft 10s 7s 7 9 mph 1015.4mb 78f 69f
8:50pm 2.5ft 11s 7s 7 9 mph 1015.2mb 78f 69f
7:50pm 2.5ft 10s 7s 7 9 mph 1015.1mb 78f 69f
6:50pm 2.5ft 10s 7s 7 9 mph 1014.7mb 78f 69f
5:50pm 3ft 10s 7s 7 9 mph 1014.6mb 78f 68f
4:50pm 3ft 11s 6s 7 9 mph 1014.8mb 78f 68f
3:50pm 2.5ft 11s 6s 7 9 mph 1015.2mb 78f 68f
2:50pm 2.5ft 10s 6s 7 9 mph 1015.3mb 78f 67f
1:50pm 3ft 11s 6s 7 11 mph 1016mb 78f 68f
12:50pm 3ft 11s 6s 7 11 mph 1016.6mb 78f 69f
11:50am 3ft 11s 6s 9 11 mph 1017.1mb 78f 69f
10:50am 3ft 11s 5s 9 11 mph 1017.2mb 78f 69f
9:50am 3.5ft 11s 5s 9 13 mph 1016.9mb 78f 68f
8:50am 2.5ft 11s 5s 9 13 mph 1016.4mb 78f 69f
7:50am 3ft 11s 5s 7 11 mph 1016.1mb 78f 68f
6:50am 3ft 11s 5s 11 13 mph 1015.7mb 78f 67f
5:50am 3ft 11s 6s 13 18 mph 1015.2mb 78f 68f
4:50am 3ft 10s 6s 11 16 mph 1015mb 78f 69f
3:50am 2.5ft 11s 5s 11 16 mph 1015.2mb 78f 68f
2:50am 3ft 11s 5s 11 16 mph 1015.6mb 78f 68f
1:50am 3ft 11s 5s 13 16 mph 1015.8mb 78f 68f
12:50am 3ft 11s 5s 13 18 mph 1016.2mb 78f 69f
Thu 10/23 11:50pm 2.5ft 8s 4s 13 18 mph 1016.5mb 78f 69f
10:50pm 2.5ft 9s 4s 13 18 mph 1016.5mb 78f 69f
9:50pm 2.5ft 12s 4s 13 18 mph 1016.1mb 78f 68f
8:50pm 2.5ft 10s 4s 16 20 mph 1015.7mb 78f 68f
7:50pm 2ft 9s 4s 13 18 mph 1015.6mb 78f 68f
6:50pm 2ft 5s 4s 11 18 mph 1015.1mb 78f 68f
5:50pm 2ft 5s 4s 11 16 mph 1014.8mb 78f 66f
4:50pm 2ft 5s 4s 11 16 mph 1015mb 78f 65f
3:50pm 2.5ft 5s 4s 11 13 mph 1015.2mb 78f 64f
2:50pm 2.5ft 5s 4s 11 13 mph 1015.7mb 78f 63f
1:50pm 3ft 5s 4s 9 13 mph 1016.3mb 78f 63f
12:50pm 3ft 5s 5s 9 13 mph 1017.3mb 78f 62f
11:50am 3ft 5s 5s 7 13 mph 1017.8mb 78f 62f
10:50am 3.5ft 5s 5s 9 11 mph 1017.9mb 78f 62f
9:50am 3.5ft 5s 5s 7 11 mph 1017.7mb 78f 62f
8:50am 3.5ft 5s 5s 11 18 mph 1017.2mb 78f 62f
7:50am 3.5ft 6s 5s 13 18 mph 1016.8mb 78f 63f
6:50am 3.5ft 5s 5s 11 16 mph 1016.6mb 78f 63f
5:50am 4ft 6s 5s 13 18 mph 1016.2mb 78f 64f
4:50am 4.5ft 5s 5s 13 20 mph 1015.8mb 78f 64f
3:50am 4ft 5s 5s 18 22 mph 1015.7mb 78f 64f
2:50am 3.5ft 4s 4s 18 25 mph 1016.1mb 78f 65f
1:50am 3.5ft 4s 4s 20 25 mph 1016.2mb 78f 66f
12:50am 3ft 5s 4s 18 25 mph 1016.1mb 78f 67f
Wed 10/22 11:50pm 3ft 4s 4s 16 20 mph 1016.7mb 78f 67f
10:50pm 3.5ft 6s 4s 16 20 mph 1016.9mb 78f 67f
9:50pm 3.5ft 6s 4s 16 20 mph 1016.8mb 78f 67f
8:50pm 3.5ft 6s 4s 16 20 mph 1016.3mb 78f 67f
7:50pm 3.5ft 6s 4s 13 18 mph 1016mb 78f 67f
6:50pm 3ft 5s 4s 13 20 mph 1015.4mb 78f 67f
5:50pm 3ft 5s 5s 13 18 mph 1014.8mb 79f 67f
4:50pm 3.5ft 6s 5s 13 18 mph 1014.9mb 79f 66f
3:50pm 3.5ft 6s 5s 9 13 mph 1015.3mb 79f 64f
2:50pm 4ft 6s 5s 13 18 mph 1015.3mb 79f 64f
1:50pm 4.5ft 6s 5s 13 20 mph 1015.6mb 79f 63f
12:50pm 4.5ft 6s 5s 18 22 mph 1016.1mb 79f 63f
11:50am 4.5ft 6s 5s 18 22 mph 1016mb 79f 62f
10:50am 5ft 6s 5s 20 25 mph 1015.8mb 79f 62f
9:50am 5ft 6s 5s 22 29 mph 1015.4mb 79f 62f
8:50am 4.5ft 6s 5s 22 27 mph 1014.9mb 79f 63f
7:50am 4.5ft 6s 5s 22 27 mph 1014.2mb 79f 64f
6:50am 5ft 6s 5s 20 27 mph 1013.4mb 79f 66f
5:50am 5ft 5s 5s 22 29 mph 1012.2mb 79f 67f
4:50am 3.5ft 4s 4s 25 29 mph 1011.4mb 79f 69f